createdAt,value
2022-12-13T00:00:14.965Z,3.70
2022-12-13T00:03:00.022Z,3.70
2022-12-13T00:05:33.256Z,4.00
2022-12-13T00:08:05.906Z,3.70
2022-12-13T00:10:38.056Z,3.90
2022-12-13T00:13:10.225Z,3.40
2022-12-13T00:15:42.296Z,3.80
2022-12-13T00:18:14.358Z,3.80
2022-12-13T00:20:47.243Z,4.30
2022-12-13T00:23:19.652Z,3.50
2022-12-13T00:25:52.301Z,3.80
2022-12-13T00:28:24.467Z,3.80
2022-12-13T00:31:19.735Z,4.30
2022-12-13T00:33:52.051Z,3.70
2022-12-13T00:36:24.731Z,4.40
2022-12-13T00:39:02.952Z,3.60
2022-12-13T00:41:36.546Z,3.30
2022-12-13T00:44:09.016Z,3.40
2022-12-13T00:46:41.907Z,4.00
2022-12-13T00:49:15.307Z,2.90
2022-12-13T00:51:49.694Z,3.80
2022-12-13T00:54:22.203Z,3.50
2022-12-13T00:56:54.496Z,4.00
2022-12-13T00:59:26.640Z,3.40
2022-12-13T01:01:58.707Z,3.70
2022-12-13T01:04:30.876Z,3.70
2022-12-13T01:07:03.270Z,3.90
2022-12-13T01:09:35.213Z,4.20
2022-12-13T01:12:08.559Z,3.30
2022-12-13T01:14:42.361Z,3.10
2022-12-13T01:17:14.403Z,3.20
2022-12-13T01:19:46.546Z,4.30
2022-12-13T01:22:18.719Z,3.40
2022-12-13T01:24:51.026Z,3.90
2022-12-13T01:27:22.980Z,3.40
2022-12-13T01:29:54.944Z,4.80
2022-12-13T01:32:27.190Z,3.80
2022-12-13T01:34:59.354Z,3.70
2022-12-13T01:37:31.322Z,4.10
2022-12-13T01:40:16.346Z,5.20
2022-12-13T01:42:49.072Z,4.50
2022-12-13T01:45:28.924Z,4.10
2022-12-13T01:48:03.545Z,3.30
2022-12-13T01:50:39.677Z,3.50
2022-12-13T01:53:16.489Z,3.50
2022-12-13T01:55:51.633Z,3.60
2022-12-13T01:58:24.306Z,3.40
2022-12-13T02:00:56.688Z,4.20
2022-12-13T02:03:29.054Z,3.80
2022-12-13T02:06:06.368Z,4.30
2022-12-13T02:08:41.799Z,3.80
2022-12-13T02:11:14.676Z,3.50
2022-12-13T02:13:47.147Z,4.20
2022-12-13T02:16:31.509Z,3.50
2022-12-13T02:19:36.256Z,4.10
2022-12-13T02:22:22.534Z,3.40
2022-12-13T02:25:28.808Z,3.40
2022-12-13T02:28:30.430Z,4.20
2022-12-13T02:31:10.801Z,3.20
2022-12-13T02:33:53.776Z,3.60
2022-12-13T02:36:36.017Z,3.60
2022-12-13T02:39:15.593Z,3.90
2022-12-13T02:41:51.755Z,4.50
2022-12-13T02:44:27.131Z,4.10
2022-12-13T02:47:04.080Z,4.10
2022-12-13T02:49:40.551Z,3.60
2022-12-13T02:52:15.011Z,3.50
2022-12-13T02:54:56.972Z,3.60
2022-12-13T02:57:34.697Z,4.20
2022-12-13T03:00:10.113Z,4.00
2022-12-13T03:02:50.395Z,3.40
2022-12-13T03:05:50.295Z,4.20
2022-12-13T03:08:26.818Z,3.10
2022-12-13T03:11:07.846Z,3.70
2022-12-13T03:13:50.863Z,3.90
2022-12-13T03:16:31.280Z,3.70
2022-12-13T03:19:06.202Z,3.50
2022-12-13T03:21:47.581Z,4.20
2022-12-13T03:24:22.250Z,3.60
2022-12-13T03:26:54.647Z,4.00
2022-12-13T03:29:27.125Z,3.70
2022-12-13T03:31:59.077Z,3.60
2022-12-13T03:34:44.650Z,4.10
2022-12-13T03:37:17.857Z,3.30
2022-12-13T03:39:50.182Z,3.80
2022-12-13T03:42:22.604Z,3.90
2022-12-13T03:44:54.677Z,3.80
2022-12-13T03:47:26.633Z,4.10
2022-12-13T03:49:58.698Z,3.60
2022-12-13T03:52:52.015Z,3.80
2022-12-13T03:55:24.033Z,2.90
2022-12-13T03:57:56.100Z,3.20
2022-12-13T04:00:28.164Z,2.90
2022-12-13T04:03:00.280Z,3.50
2022-12-13T04:05:32.401Z,3.60
2022-12-13T04:08:04.478Z,4.10
2022-12-13T04:10:54.532Z,3.20
2022-12-13T04:13:35.530Z,3.70
2022-12-13T04:16:08.946Z,3.30
2022-12-13T04:18:41.098Z,3.60
2022-12-13T04:21:13.392Z,4.00
2022-12-13T04:23:45.433Z,3.70
2022-12-13T04:26:17.500Z,2.90
2022-12-13T04:28:54.207Z,3.90
2022-12-13T04:31:27.022Z,3.00
2022-12-13T04:33:59.133Z,3.30
2022-12-13T04:36:32.853Z,3.60
2022-12-13T04:39:22.315Z,3.60
2022-12-13T04:41:55.460Z,3.20
2022-12-13T04:44:31.465Z,3.70
2022-12-13T04:47:06.585Z,3.70
2022-12-13T04:49:38.656Z,3.30
2022-12-13T04:52:11.469Z,3.40
2022-12-13T04:54:44.323Z,2.80
2022-12-13T04:57:16.391Z,2.80
2022-12-13T04:59:48.458Z,3.40
2022-12-13T05:02:24.002Z,3.60
2022-12-13T05:04:56.582Z,3.40
2022-12-13T05:07:29.601Z,2.60
2022-12-13T05:10:01.638Z,3.80
2022-12-13T05:12:33.703Z,2.80
2022-12-13T05:15:06.650Z,3.20
2022-12-13T05:17:38.585Z,2.90
2022-12-13T05:20:12.597Z,3.20
2022-12-13T05:22:44.816Z,3.00
2022-12-13T05:25:17.231Z,2.80
2022-12-13T05:27:49.993Z,3.30
2022-12-13T05:30:29.154Z,3.00
2022-12-13T05:33:01.200Z,3.30
2022-12-13T05:35:33.460Z,3.00
2022-12-13T05:38:06.856Z,2.90
2022-12-13T05:40:39.539Z,2.50
2022-12-13T05:43:21.963Z,3.10
2022-12-13T05:45:54.553Z,3.80
2022-12-13T05:48:26.696Z,2.20
2022-12-13T05:51:09.957Z,2.80
2022-12-13T05:53:48.551Z,2.90
2022-12-13T05:56:23.782Z,2.40
2022-12-13T05:58:55.712Z,3.00
2022-12-13T06:01:27.916Z,2.70
2022-12-13T06:03:59.979Z,3.30
2022-12-13T06:06:32.252Z,2.70
2022-12-13T06:09:05.019Z,2.70
2022-12-13T06:11:43.439Z,2.40
2022-12-13T06:14:22.567Z,3.20
2022-12-13T06:16:55.745Z,3.10
2022-12-13T06:19:28.064Z,2.10
2022-12-13T06:22:00.008Z,2.60
2022-12-13T06:24:32.078Z,3.60
2022-12-13T06:27:05.404Z,2.70
2022-12-13T06:29:37.737Z,2.80
2022-12-13T06:32:10.733Z,3.20
2022-12-13T06:34:42.902Z,2.60
2022-12-13T06:37:16.842Z,2.60
2022-12-13T06:39:49.760Z,3.00
2022-12-13T06:42:22.607Z,2.70
2022-12-13T06:44:56.102Z,3.30
2022-12-13T06:47:32.052Z,3.50
2022-12-13T06:50:05.922Z,2.50
2022-12-13T06:52:38.223Z,3.00
2022-12-13T06:55:12.466Z,3.00
2022-12-13T06:57:45.140Z,2.70
2022-12-13T07:00:21.968Z,2.90
2022-12-13T07:02:58.490Z,3.10
2022-12-13T07:05:30.737Z,2.70
2022-12-13T07:08:08.385Z,2.80
2022-12-13T07:10:44.087Z,3.00
2022-12-13T07:13:17.178Z,3.70
2022-12-13T07:15:51.648Z,2.50
2022-12-13T07:18:23.767Z,3.20
2022-12-13T07:20:55.756Z,3.60
2022-12-13T07:23:28.103Z,3.40
2022-12-13T07:26:01.505Z,3.30
2022-12-13T07:28:35.555Z,3.10
2022-12-13T07:31:09.856Z,3.20
2022-12-13T07:33:42.343Z,3.50
2022-12-13T07:36:16.628Z,10.80
2022-12-13T07:38:55.103Z,15.10
2022-12-13T07:41:29.445Z,11.60
2022-12-13T07:44:01.663Z,18.40
2022-12-13T07:46:34.138Z,21.20
2022-12-13T07:49:08.552Z,15.70
2022-12-13T07:51:40.853Z,14.70
2022-12-13T07:54:12.969Z,16.30
2022-12-13T07:56:46.067Z,15.00
2022-12-13T07:59:28.365Z,16.60
2022-12-13T08:02:01.863Z,13.60
2022-12-13T08:04:37.735Z,15.30
2022-12-13T08:07:11.484Z,15.80
2022-12-13T08:09:46.791Z,13.60
2022-12-13T08:12:23.655Z,15.00
2022-12-13T08:14:55.716Z,14.00
2022-12-13T08:17:28.344Z,15.60
2022-12-13T08:20:01.007Z,14.00
2022-12-13T08:22:35.830Z,15.00
2022-12-13T08:25:10.451Z,14.00
2022-12-13T08:27:43.059Z,15.20
2022-12-13T08:30:22.897Z,13.50
2022-12-13T08:32:56.356Z,16.40
2022-12-13T08:35:34.512Z,12.50
2022-12-13T08:38:07.292Z,13.50
2022-12-13T08:40:40.068Z,16.30
2022-12-13T08:43:12.535Z,14.30
2022-12-13T08:45:45.027Z,13.90
2022-12-13T08:48:17.226Z,14.50
2022-12-13T08:50:49.327Z,13.80
2022-12-13T08:53:27.866Z,12.90
2022-12-13T08:56:05.023Z,14.40
2022-12-13T08:58:37.777Z,14.00
2022-12-13T09:01:10.729Z,14.40
2022-12-13T09:03:43.072Z,12.20
2022-12-13T09:06:18.412Z,15.10
2022-12-13T09:08:51.874Z,14.30
2022-12-13T09:11:32.951Z,13.30
2022-12-13T09:14:14.167Z,13.70
2022-12-13T09:16:50.748Z,14.20
2022-12-13T09:19:26.908Z,13.40
2022-12-13T09:22:02.627Z,15.30
2022-12-13T09:24:37.131Z,15.80
2022-12-13T09:27:10.340Z,15.60
2022-12-13T09:30:00.105Z,16.50
2022-12-13T09:32:32.433Z,16.50
2022-12-13T09:35:05.152Z,15.30
2022-12-13T09:37:42.566Z,14.20
2022-12-13T09:40:26.606Z,14.50
2022-12-13T09:43:12.098Z,17.40
2022-12-13T09:45:50.650Z,17.70
2022-12-13T09:48:24.715Z,15.60
2022-12-13T09:51:18.018Z,14.90
2022-12-13T09:53:54.286Z,17.70
2022-12-13T09:56:26.352Z,18.90
2022-12-13T09:58:59.689Z,16.50
2022-12-13T10:01:31.856Z,17.00
2022-12-13T10:04:04.298Z,17.20
2022-12-13T10:06:37.945Z,21.90
2022-12-13T10:09:14.089Z,17.90
2022-12-13T10:11:52.588Z,17.90
2022-12-13T10:14:32.088Z,18.60
2022-12-13T10:17:07.973Z,13.80
2022-12-13T10:19:44.853Z,19.60
2022-12-13T10:22:19.524Z,19.30
2022-12-13T10:24:54.148Z,20.80
2022-12-13T10:27:34.571Z,19.40
2022-12-13T10:30:11.902Z,20.00
2022-12-13T10:32:55.906Z,19.20
2022-12-13T10:35:30.544Z,20.40
2022-12-13T10:38:22.153Z,17.70
2022-12-13T10:41:04.357Z,19.80
2022-12-13T10:43:38.109Z,20.70
2022-12-13T10:46:25.038Z,16.70
2022-12-13T10:48:58.573Z,19.00
2022-12-13T10:51:41.548Z,18.80
2022-12-13T10:54:21.144Z,20.40
2022-12-13T10:57:00.582Z,17.20
2022-12-13T10:59:47.330Z,15.30
2022-12-13T11:02:35.118Z,19.00
2022-12-13T11:05:27.072Z,18.50
2022-12-13T11:08:13.384Z,18.60
2022-12-13T11:10:46.042Z,19.80
2022-12-13T11:13:36.742Z,15.10
2022-12-13T11:16:28.732Z,17.10
2022-12-13T11:19:04.873Z,18.90
2022-12-13T11:21:38.954Z,16.80
2022-12-13T11:24:23.098Z,17.00
2022-12-13T11:27:02.047Z,16.10
2022-12-13T11:30:00.774Z,14.20
2022-12-13T11:32:46.835Z,17.50
2022-12-13T11:35:27.281Z,14.90
2022-12-13T11:38:09.216Z,16.40
2022-12-13T11:40:48.144Z,14.60
2022-12-13T11:43:28.049Z,15.20
2022-12-13T11:46:05.056Z,14.60
2022-12-13T11:48:46.114Z,15.70
2022-12-13T11:51:25.963Z,15.30
2022-12-13T11:54:03.145Z,14.60
2022-12-13T11:56:39.235Z,15.00
2022-12-13T11:59:32.058Z,15.00
2022-12-13T12:02:19.691Z,13.80
2022-12-13T12:05:00.071Z,13.40
2022-12-13T12:07:48.362Z,14.60
2022-12-13T12:10:37.167Z,16.10
2022-12-13T12:13:18.763Z,15.20
2022-12-13T12:16:02.591Z,14.50
2022-12-13T12:18:34.968Z,14.60
2022-12-13T12:21:19.327Z,12.70
2022-12-13T12:24:11.120Z,15.10
2022-12-13T12:26:52.843Z,12.60
2022-12-13T12:29:43.445Z,15.90
2022-12-13T12:32:26.842Z,13.60
2022-12-13T12:35:15.045Z,13.20
2022-12-13T12:41:07.502Z,14.30
2022-12-13T12:43:36.168Z,13.10
2022-12-13T12:46:28.662Z,15.50
2022-12-13T12:49:52.421Z,13.30
2022-12-13T12:52:35.011Z,14.20
2022-12-13T12:55:16.909Z,14.00
2022-12-13T12:58:01.946Z,13.60
2022-12-13T13:00:45.132Z,15.20
2022-12-13T13:03:23.459Z,14.60
2022-12-13T13:06:02.600Z,14.10
2022-12-13T13:08:43.015Z,13.70
2022-12-13T13:11:24.687Z,14.30
2022-12-13T13:14:30.117Z,14.40
2022-12-13T13:17:41.031Z,13.30
2022-12-13T13:20:23.765Z,13.90
2022-12-13T13:23:39.804Z,15.00
2022-12-13T13:26:23.503Z,14.30
2022-12-13T13:28:49.610Z,14.70
2022-12-13T13:31:22.039Z,12.90
2022-12-13T13:33:54.620Z,17.20
2022-12-13T13:36:48.009Z,14.20
2022-12-13T13:39:38.018Z,13.40
2022-12-13T13:42:20.533Z,14.30
2022-12-13T13:48:18.213Z,22.30
2022-12-13T13:51:22.847Z,18.20
2022-12-13T13:54:27.969Z,20.50
2022-12-13T13:58:00.362Z,21.10
2022-12-13T14:00:35.510Z,21.70
2022-12-13T14:03:52.844Z,17.90
2022-12-13T14:07:01.086Z,17.30
2022-12-13T14:10:09.704Z,21.80
2022-12-13T14:13:23.953Z,18.20
2022-12-13T14:16:34.973Z,17.30
2022-12-13T14:19:53.193Z,18.00
2022-12-13T14:22:36.640Z,15.50
2022-12-13T14:25:27.532Z,17.50
2022-12-13T14:28:10.038Z,20.20
2022-12-13T14:30:47.848Z,19.20
2022-12-13T14:33:30.209Z,19.70
2022-12-13T14:36:04.398Z,20.60
2022-12-13T14:38:36.726Z,20.00
2022-12-13T14:41:16.459Z,20.60
2022-12-13T14:43:50.311Z,18.80
2022-12-13T14:46:23.295Z,19.50
2022-12-13T14:48:56.236Z,19.00
2022-12-13T14:51:35.155Z,18.40
2022-12-13T14:54:15.525Z,20.60
2022-12-13T14:57:00.429Z,18.40
2022-12-13T14:59:33.775Z,18.40
2022-12-13T15:02:10.884Z,19.50
2022-12-13T15:04:46.217Z,19.40
2022-12-13T15:07:25.567Z,18.80
2022-12-13T15:10:02.092Z,19.20
2022-12-13T15:12:35.117Z,20.70
2022-12-13T15:15:19.034Z,21.80
2022-12-13T15:18:06.412Z,20.50
2022-12-13T15:20:43.405Z,23.10
2022-12-13T15:23:27.645Z,20.30
2022-12-13T15:26:09.403Z,20.50
2022-12-13T15:28:44.993Z,34.80
2022-12-13T15:31:17.921Z,25.60
2022-12-13T15:33:50.270Z,33.00
2022-12-13T15:36:25.845Z,33.30
2022-12-13T15:39:03.532Z,33.10
2022-12-13T15:41:38.815Z,36.60
2022-12-13T15:44:21.236Z,39.10
2022-12-13T15:47:00.040Z,37.10
2022-12-13T15:49:37.938Z,37.90
2022-12-13T15:52:30.215Z,38.10
2022-12-13T15:55:28.293Z,37.90
2022-12-13T15:58:01.760Z,38.00
2022-12-13T16:00:36.182Z,41.20
2022-12-13T16:03:14.623Z,43.20
2022-12-13T16:05:51.401Z,36.80
2022-12-13T16:08:29.379Z,38.40
2022-12-13T16:11:02.138Z,40.50
2022-12-13T16:13:36.253Z,40.20
2022-12-13T16:16:27.101Z,39.60
2022-12-13T16:19:02.219Z,41.80
2022-12-13T16:21:34.593Z,43.30
2022-12-13T16:24:07.380Z,40.30
2022-12-13T16:26:44.666Z,46.50
2022-12-13T16:29:20.623Z,43.80
2022-12-13T16:32:01.378Z,43.40
2022-12-13T16:34:40.218Z,43.20
2022-12-13T16:37:26.603Z,39.60
2022-12-13T16:40:02.252Z,43.20
2022-12-13T16:42:34.747Z,43.50
2022-12-13T16:45:43.201Z,42.80
2022-12-13T16:48:07.013Z,42.70
2022-12-13T16:50:42.411Z,44.40
2022-12-13T16:53:17.600Z,40.80
2022-12-13T16:55:58.083Z,42.30
2022-12-13T16:58:31.178Z,41.80
2022-12-13T17:01:03.249Z,43.40
2022-12-13T17:03:35.395Z,37.80
2022-12-13T17:06:09.919Z,40.30
2022-12-13T17:08:42.105Z,45.20
2022-12-13T17:11:18.751Z,45.10
2022-12-13T17:13:51.358Z,46.10
2022-12-13T17:16:26.742Z,45.80
2022-12-13T17:18:59.486Z,41.20
2022-12-13T17:21:32.171Z,41.90
2022-12-13T17:24:05.255Z,45.70
2022-12-13T17:26:38.147Z,43.10
2022-12-13T17:29:17.404Z,42.90
2022-12-13T17:31:49.954Z,42.00
2022-12-13T17:34:21.999Z,43.50
2022-12-13T17:36:54.701Z,40.10
2022-12-13T17:39:26.868Z,45.20
2022-12-13T17:41:59.037Z,47.90
2022-12-13T17:44:31.411Z,44.20
2022-12-13T17:47:04.548Z,47.60
2022-12-13T17:49:36.874Z,44.40
2022-12-13T17:52:09.656Z,45.70
2022-12-13T17:54:41.803Z,43.90
2022-12-13T17:57:13.998Z,47.10
2022-12-13T17:59:48.238Z,42.70
2022-12-13T18:02:23.182Z,46.10
2022-12-13T18:04:55.520Z,45.60
2022-12-13T18:07:27.584Z,45.70
2022-12-13T18:09:59.651Z,47.10
2022-12-13T18:12:33.355Z,46.10
2022-12-13T18:15:06.243Z,48.70
2022-12-13T18:18:09.426Z,46.10
2022-12-13T18:20:31.037Z,46.20
2022-12-13T18:23:03.432Z,45.10
2022-12-13T18:25:36.089Z,48.20
2022-12-13T18:28:09.613Z,43.90
2022-12-13T18:30:41.922Z,43.00
2022-12-13T18:33:13.950Z,50.60
2022-12-13T18:35:46.020Z,50.40
2022-12-13T18:38:18.389Z,47.90
2022-12-13T18:40:51.075Z,47.60
2022-12-13T18:43:23.854Z,50.10
2022-12-13T18:45:56.055Z,52.00
2022-12-13T18:48:28.469Z,50.30
2022-12-13T18:51:03.673Z,52.30
2022-12-13T18:53:37.396Z,55.00
2022-12-13T18:56:18.422Z,51.60
2022-12-13T18:58:52.732Z,54.20
2022-12-13T19:01:27.183Z,49.60
2022-12-13T19:04:01.992Z,53.40
2022-12-13T19:06:34.172Z,53.60
2022-12-13T19:09:07.075Z,54.50
2022-12-13T19:11:39.215Z,52.10
2022-12-13T19:14:11.281Z,51.10
2022-12-13T19:16:43.652Z,55.10
2022-12-13T19:19:15.722Z,54.30
2022-12-13T19:21:47.888Z,49.30
2022-12-13T19:24:20.467Z,57.40
2022-12-13T19:26:52.944Z,56.10
2022-12-13T19:29:25.830Z,56.80
2022-12-13T19:31:57.997Z,56.30
2022-12-13T19:34:30.062Z,61.80
2022-12-13T19:37:06.338Z,58.30
2022-12-13T19:39:38.953Z,60.40
2022-12-13T19:42:10.971Z,52.90
2022-12-13T19:44:43.038Z,58.90
2022-12-13T19:47:15.121Z,55.80
2022-12-13T19:49:47.081Z,57.50
2022-12-13T19:52:20.568Z,59.20
2022-12-13T19:54:52.873Z,56.40
2022-12-13T19:57:25.009Z,54.00
2022-12-13T19:59:57.178Z,59.30
2022-12-13T20:02:29.380Z,57.10
2022-12-13T20:05:01.877Z,54.80
2022-12-13T20:07:34.497Z,57.50
2022-12-13T20:10:08.043Z,56.20
2022-12-13T20:12:41.238Z,58.30
2022-12-13T20:15:14.491Z,63.50
2022-12-13T20:17:46.558Z,59.20
2022-12-13T20:20:18.885Z,57.80
2022-12-13T20:22:51.357Z,57.60
2022-12-13T20:25:23.781Z,56.70
2022-12-13T20:27:55.726Z,57.10
2022-12-13T20:30:28.371Z,59.20
2022-12-13T20:33:00.387Z,57.30
2022-12-13T20:35:32.662Z,56.90
2022-12-13T20:38:05.544Z,56.30
2022-12-13T20:40:38.429Z,55.10
2022-12-13T20:43:10.598Z,59.50
2022-12-13T20:45:42.666Z,58.10
2022-12-13T20:48:14.731Z,59.40
2022-12-13T20:50:46.982Z,62.60
2022-12-13T20:53:21.559Z,61.70
2022-12-13T20:55:56.664Z,63.40
2022-12-13T20:58:29.053Z,60.00
2022-12-13T21:01:01.145Z,59.60
2022-12-13T21:03:33.784Z,64.00
2022-12-13T21:06:06.116Z,60.20
2022-12-13T21:08:54.807Z,58.90
2022-12-13T21:11:29.164Z,65.40
2022-12-13T21:14:08.368Z,61.10
2022-12-13T21:16:44.746Z,63.10
2022-12-13T21:19:19.398Z,67.00
2022-12-13T21:21:52.249Z,67.00
2022-12-13T21:24:26.027Z,62.50
2022-12-13T21:26:58.428Z,60.80
2022-12-13T21:29:30.799Z,67.60
2022-12-13T21:32:03.013Z,66.60
2022-12-13T21:34:35.135Z,68.10
2022-12-13T21:37:07.067Z,70.00
2022-12-13T21:39:38.990Z,70.00
2022-12-13T21:42:11.028Z,69.80
2022-12-13T21:44:43.094Z,65.80
2022-12-13T21:47:15.036Z,71.00
2022-12-13T21:49:48.466Z,69.10
2022-12-13T21:52:21.549Z,69.70
2022-12-13T21:55:15.119Z,73.60
2022-12-13T21:58:07.558Z,70.60
2022-12-13T22:00:41.553Z,72.80
2022-12-13T22:03:13.740Z,74.60
2022-12-13T22:05:46.935Z,76.60
2022-12-13T22:08:18.999Z,70.30
2022-12-13T22:11:08.516Z,71.60
2022-12-13T22:13:40.643Z,71.10
2022-12-13T22:16:12.751Z,77.20
2022-12-13T22:18:44.879Z,75.40
2022-12-13T22:21:16.956Z,71.70
2022-12-13T22:23:49.012Z,78.00
2022-12-13T22:26:21.385Z,78.00
2022-12-13T22:28:54.476Z,81.30
2022-12-13T22:31:29.891Z,76.40
2022-12-13T22:36:33.027Z,79.60
2022-12-13T22:39:06.044Z,73.40
2022-12-13T22:41:38.184Z,83.00
2022-12-13T22:44:10.357Z,83.20
2022-12-13T22:46:42.991Z,81.20
2022-12-13T22:49:15.304Z,81.40
2022-12-13T22:51:47.474Z,82.40
2022-12-13T22:54:20.052Z,80.20
2022-12-13T22:56:53.863Z,82.70
2022-12-13T22:59:26.335Z,84.60
2022-12-13T23:02:02.690Z,83.50
2022-12-13T23:04:37.742Z,79.90
2022-12-13T23:07:10.314Z,79.90
2022-12-13T23:09:42.383Z,87.90
2022-12-13T23:12:32.464Z,87.80
2022-12-13T23:15:05.134Z,81.60
2022-12-13T23:17:37.244Z,83.20
2022-12-13T23:20:11.733Z,88.90
2022-12-13T23:22:44.322Z,85.10
2022-12-13T23:25:16.493Z,83.00
2022-12-13T23:27:48.760Z,86.40
2022-12-13T23:30:21.138Z,85.20
2022-12-13T23:32:53.508Z,84.20
2022-12-13T23:35:25.572Z,87.70
2022-12-13T23:37:57.639Z,84.70
2022-12-13T23:40:29.705Z,88.00
2022-12-13T23:43:01.772Z,85.70
2022-12-13T23:45:33.841Z,85.40
2022-12-13T23:48:07.211Z,85.50
2022-12-13T23:50:39.201Z,83.50
2022-12-13T23:53:11.265Z,80.70
2022-12-13T23:55:43.333Z,87.50
2022-12-13T23:58:22.463Z,89.50
